Time;durP1;ratioP1;P1;durP2;ratioP2;P2;SDS_P1;SDS_P2;PMS_P1;PMS_P2;Temp;Humidity;BMP_temperature;BMP_pressure;BME280_temperature;BME280_humidity;BME280_pressure;Samples;Min_cycle;Max_cycle;Signal;HPM_P1;HPM_P2
2023/11/22 00:02:02;;;;;;;7.53;5.27;;;10.60;99.90;;;;;;5039077;28;20521;-70
2023/11/22 00:04:27;;;;;;;6.90;5.80;;;10.50;99.90;;;;;;5041584;28;20234;-70
2023/11/22 00:06:53;;;;;;;8.40;5.87;;;10.50;99.90;;;;;;5042506;28;20939;-70
2023/11/22 00:09:22;;;;;;;6.40;4.90;;;10.50;99.90;;;;;;5040650;28;20176;-70
2023/11/22 00:11:47;;;;;;;5.93;4.97;;;10.40;99.90;;;;;;5038674;28;20184;-70
2023/11/22 00:14:13;;;;;;;6.90;5.17;;;10.30;99.90;;;;;;5040316;28;20952;-70
2023/11/22 00:16:39;;;;;;;7.60;4.83;;;10.20;99.90;;;;;;5044162;28;20291;-70
2023/11/22 00:19:06;;;;;;;7.70;5.40;;;10.10;99.90;;;;;;5040139;28;20183;-69
2023/11/22 00:21:32;;;;;;;12.57;5.60;;;10.10;99.90;;;;;;5041268;28;20863;-70
2023/11/22 00:23:57;;;;;;;6.03;4.70;;;10.10;99.90;;;;;;5036987;28;20547;-70
2023/11/22 00:26:23;;;;;;;7.10;4.93;;;10.10;99.90;;;;;;5041766;28;20466;-70
2023/11/22 00:28:49;;;;;;;5.30;4.63;;;10.10;99.90;;;;;;5044696;28;20188;-70
2023/11/22 00:31:15;;;;;;;5.57;4.30;;;10.00;99.90;;;;;;5038688;28;20521;-70
2023/11/22 00:33:41;;;;;;;6.27;4.40;;;9.90;99.90;;;;;;5049763;28;20199;-70
2023/11/22 00:36:08;;;;;;;6.03;4.27;;;9.80;99.90;;;;;;5043874;28;20445;-69
2023/11/22 00:38:35;;;;;;;4.93;4.40;;;9.70;99.90;;;;;;5048037;28;20183;-70
2023/11/22 00:41:02;;;;;;;5.53;4.13;;;9.60;99.90;;;;;;5038333;28;20435;-70
2023/11/22 00:43:27;;;;;;;8.47;5.57;;;9.50;99.90;;;;;;5041629;28;20525;-68
2023/11/22 00:45:53;;;;;;;6.87;4.93;;;9.50;99.90;;;;;;5038511;28;20608;-69
2023/11/22 00:48:19;;;;;;;7.00;5.10;;;9.40;99.90;;;;;;5044357;28;20257;-69
2023/11/22 00:50:44;;;;;;;4.93;3.70;;;9.40;99.90;;;;;;5041723;28;20192;-69
2023/11/22 00:53:10;;;;;;;5.80;4.77;;;9.40;99.90;;;;;;5040724;28;20192;-69
2023/11/22 00:55:35;;;;;;;5.37;4.50;;;9.50;99.90;;;;;;5039184;28;20179;-69
2023/11/22 00:58:04;;;;;;;5.10;3.67;;;9.40;99.90;;;;;;5035484;28;20188;-69
2023/11/22 01:00:30;;;;;;;9.37;4.13;;;9.50;99.90;;;;;;5038675;28;20177;-70
2023/11/22 01:02:56;;;;;;;4.63;4.03;;;9.50;99.90;;;;;;5030847;28;20481;-70
2023/11/22 01:05:22;;;;;;;5.30;4.00;;;9.50;99.90;;;;;;5039684;28;20975;-69
2023/11/22 01:07:48;;;;;;;5.10;4.00;;;9.40;99.90;;;;;;5042064;28;20727;-70
2023/11/22 01:10:13;;;;;;;5.93;4.50;;;9.40;99.90;;;;;;5038943;28;20415;-70
2023/11/22 01:12:39;;;;;;;6.90;4.77;;;9.40;99.90;;;;;;5041027;28;20197;-69
2023/11/22 01:15:05;;;;;;;6.00;4.40;;;9.30;99.90;;;;;;5040263;28;20597;-70
2023/11/22 01:17:31;;;;;;;5.67;4.10;;;9.30;99.90;;;;;;5032237;28;20184;-70
2023/11/22 01:19:58;;;;;;;4.90;4.40;;;9.30;99.90;;;;;;5040186;28;20432;-72
2023/11/22 01:22:24;;;;;;;5.60;4.90;;;9.30;99.90;;;;;;5035472;28;20173;-71
2023/11/22 01:24:49;;;;;;;6.70;4.87;;;9.20;99.90;;;;;;5039933;28;20430;-70
2023/11/22 01:27:15;;;;;;;5.60;4.50;;;9.10;99.90;;;;;;5039675;28;20204;-70
2023/11/22 01:29:41;;;;;;;4.57;4.07;;;9.10;99.90;;;;;;5035219;28;20704;-68
2023/11/22 01:32:08;;;;;;;6.00;4.07;;;9.00;99.90;;;;;;5036447;28;20670;-70
2023/11/22 01:34:34;;;;;;;5.63;4.23;;;8.90;99.90;;;;;;5036913;28;20438;-69
2023/11/22 01:37:00;;;;;;;6.40;5.00;;;8.80;99.90;;;;;;5032021;28;20949;-69
2023/11/22 01:39:26;;;;;;;5.43;4.50;;;8.80;99.90;;;;;;5041477;28;20454;-69
2023/11/22 01:41:52;;;;;;;5.57;4.37;;;8.80;99.90;;;;;;5042419;28;20267;-68
2023/11/22 01:44:20;;;;;;;5.10;4.43;;;8.70;99.90;;;;;;5042739;28;20442;-69
2023/11/22 01:46:46;;;;;;;5.53;4.80;;;8.70;99.90;;;;;;5038088;28;20469;-69
2023/11/22 01:49:12;;;;;;;5.67;4.10;;;8.70;99.90;;;;;;5043934;28;20413;-68
2023/11/22 01:51:40;;;;;;;7.37;5.47;;;8.70;99.90;;;;;;5039620;28;20184;-69
2023/11/22 01:54:08;;;;;;;6.53;4.47;;;8.70;99.90;;;;;;5037802;28;20490;-69
2023/11/22 01:56:37;;;;;;;7.20;4.77;;;8.70;99.90;;;;;;5039233;28;20805;-69
2023/11/22 01:59:03;;;;;;;5.67;4.30;;;8.70;99.90;;;;;;5036439;28;20442;-69
2023/11/22 02:01:30;;;;;;;6.47;5.43;;;8.70;99.90;;;;;;5042513;28;20939;-69
2023/11/22 02:03:56;;;;;;;7.10;4.90;;;8.70;99.90;;;;;;5043270;28;20449;-69
2023/11/22 02:06:22;;;;;;;5.07;3.93;;;8.70;99.90;;;;;;5034084;28;20480;-70
2023/11/22 02:08:48;;;;;;;4.70;4.00;;;8.70;99.90;;;;;;5034702;28;21053;-69
2023/11/22 02:11:17;;;;;;;7.20;5.27;;;8.70;99.90;;;;;;5039268;28;20447;-69
2023/11/22 02:13:42;;;;;;;7.20;4.43;;;8.70;99.90;;;;;;5039646;28;20269;-69
2023/11/22 02:16:08;;;;;;;5.23;4.30;;;8.60;99.90;;;;;;5041644;28;20422;-69
2023/11/22 02:18:34;;;;;;;4.53;4.03;;;8.60;99.90;;;;;;5041911;28;20195;-69
2023/11/22 02:21:00;;;;;;;3.87;3.50;;;8.60;99.90;;;;;;5037831;28;20183;-69
2023/11/22 02:23:26;;;;;;;4.47;3.50;;;8.60;99.90;;;;;;5039495;28;20471;-70
2023/11/22 02:25:52;;;;;;;5.20;3.50;;;8.60;99.90;;;;;;5040456;28;20218;-70
2023/11/22 02:28:18;;;;;;;4.13;3.20;;;8.60;99.90;;;;;;5041182;28;20421;-70
2023/11/22 02:30:43;;;;;;;4.10;3.03;;;8.50;99.90;;;;;;5040111;28;20271;-70
2023/11/22 02:33:09;;;;;;;4.80;3.33;;;8.60;99.90;;;;;;5039672;28;20438;-70
2023/11/22 02:35:34;;;;;;;4.43;3.20;;;8.60;99.90;;;;;;5037769;28;20222;-69
2023/11/22 02:38:00;;;;;;;9.53;2.87;;;8.50;99.90;;;;;;5041685;28;20184;-69
2023/11/22 02:40:27;;;;;;;3.20;2.53;;;8.50;99.90;;;;;;5037990;28;20226;-70
2023/11/22 02:42:54;;;;;;;5.70;3.17;;;8.60;99.90;;;;;;5038513;28;20426;-70
2023/11/22 02:45:27;;;;;;;3.57;2.70;;;8.60;99.90;;;;;;5037804;28;20434;-70
2023/11/22 02:47:53;;;;;;;4.10;3.20;;;8.60;99.90;;;;;;5037720;28;20426;-70
2023/11/22 02:50:19;;;;;;;4.50;3.23;;;8.60;99.90;;;;;;5038616;28;20430;-70
2023/11/22 02:52:45;;;;;;;3.53;2.67;;;8.60;99.90;;;;;;5039476;28;20199;-70
2023/11/22 02:55:10;;;;;;;3.70;3.00;;;8.60;99.90;;;;;;5039605;28;20505;-70
2023/11/22 02:57:37;;;;;;;3.70;2.80;;;8.60;99.90;;;;;;5042567;28;20274;-70
2023/11/22 03:00:04;;;;;;;4.30;2.37;;;8.50;99.90;;;;;;5035750;28;20188;-70
2023/11/22 03:02:31;;;;;;;4.40;3.03;;;8.60;99.90;;;;;;5041535;28;20446;-70
2023/11/22 03:04:58;;;;;;;4.47;2.80;;;8.50;99.90;;;;;;5046295;28;20552;-70
2023/11/22 03:07:25;;;;;;;4.83;2.90;;;8.50;99.90;;;;;;5037804;28;20465;-70
2023/11/22 03:09:52;;;;;;;3.50;2.80;;;8.50;99.90;;;;;;5042283;28;20556;-69
2023/11/22 03:12:20;;;;;;;3.90;3.23;;;8.50;99.90;;;;;;5042616;28;20513;-70
2023/11/22 03:14:46;;;;;;;3.50;2.67;;;8.50;99.90;;;;;;5043916;28;20422;-70
2023/11/22 03:17:13;;;;;;;3.60;2.80;;;8.40;99.90;;;;;;5041086;28;20482;-70
2023/11/22 03:19:39;;;;;;;3.87;2.57;;;8.40;99.90;;;;;;5045859;28;20467;-70
2023/11/22 03:22:06;;;;;;;3.97;3.00;;;8.40;99.90;;;;;;5037546;28;20870;-70
2023/11/22 03:24:34;;;;;;;3.43;2.97;;;8.40;99.90;;;;;;5039857;28;21004;-70
2023/11/22 03:27:01;;;;;;;3.27;2.77;;;8.40;99.90;;;;;;5036709;28;20524;-70
2023/11/22 03:29:27;;;;;;;3.77;3.00;;;8.40;99.90;;;;;;5034808;28;20438;-70
2023/11/22 03:31:53;;;;;;;3.93;2.97;;;8.50;99.90;;;;;;5040014;28;20520;-70
2023/11/22 03:34:19;;;;;;;4.07;3.17;;;8.40;99.90;;;;;;5041174;28;20524;-69
2023/11/22 03:36:45;;;;;;;4.10;3.20;;;8.40;99.90;;;;;;5043659;28;20634;-70
2023/11/22 03:39:11;;;;;;;4.20;3.17;;;8.40;99.90;;;;;;5044775;28;20537;-70
2023/11/22 03:41:39;;;;;;;4.40;3.40;;;8.40;99.90;;;;;;5048053;28;20180;-70
2023/11/22 03:44:08;;;;;;;4.00;3.13;;;8.40;99.90;;;;;;5042065;28;20203;-70
2023/11/22 03:46:38;;;;;;;5.23;3.33;;;8.40;99.90;;;;;;5041841;28;20902;-69
2023/11/22 03:49:06;;;;;;;4.87;3.40;;;8.40;99.90;;;;;;5040030;28;20419;-70
2023/11/22 03:51:32;;;;;;;4.60;3.73;;;8.40;99.90;;;;;;5034508;28;20441;-70
2023/11/22 03:53:58;;;;;;;4.13;3.57;;;8.30;99.90;;;;;;5041361;28;20430;-70
2023/11/22 03:56:24;;;;;;;5.57;3.80;;;8.30;99.90;;;;;;5038530;28;20926;-70
2023/11/22 03:58:50;;;;;;;6.07;4.33;;;8.20;99.90;;;;;;5042673;28;20445;-69
2023/11/22 04:01:20;;;;;;;4.77;4.10;;;8.20;99.90;;;;;;5040330;28;20579;-69
2023/11/22 04:03:48;;;;;;;5.23;4.17;;;8.20;99.90;;;;;;5042862;28;20206;-69
2023/11/22 04:06:15;;;;;;;7.17;4.67;;;8.20;99.90;;;;;;5041658;28;20466;-69
2023/11/22 04:08:43;;;;;;;7.10;4.33;;;8.10;99.90;;;;;;5042174;28;20801;-69
2023/11/22 04:11:09;;;;;;;6.10;4.30;;;8.10;99.90;;;;;;5046172;28;20430;-69
2023/11/22 04:13:35;;;;;;;4.40;3.80;;;8.10;99.90;;;;;;5043330;28;20466;-69
2023/11/22 04:16:01;;;;;;;5.20;4.00;;;8.00;99.90;;;;;;5041352;28;20437;-69
2023/11/22 04:18:27;;;;;;;4.70;4.00;;;8.00;99.90;;;;;;5043759;28;20653;-69
2023/11/22 04:20:53;;;;;;;7.90;4.50;;;8.00;99.90;;;;;;5047369;28;20183;-69
2023/11/22 04:23:18;;;;;;;10.00;4.70;;;8.00;99.90;;;;;;5039051;28;21034;-69
2023/11/22 04:25:44;;;;;;;7.10;4.83;;;8.00;99.90;;;;;;5037875;28;20283;-69
2023/11/22 04:28:09;;;;;;;7.37;4.53;;;7.90;99.90;;;;;;5039432;28;20188;-69
2023/11/22 04:30:35;;;;;;;6.53;4.90;;;7.90;99.90;;;;;;5038559;28;20250;-69
2023/11/22 04:33:01;;;;;;;5.07;4.00;;;7.80;99.90;;;;;;5043185;28;20439;-69
2023/11/22 04:35:27;;;;;;;6.17;4.80;;;7.80;99.90;;;;;;5040280;28;20184;-69
2023/11/22 04:37:55;;;;;;;4.83;3.87;;;7.70;99.90;;;;;;5041942;28;20429;-69
2023/11/22 04:40:20;;;;;;;5.63;3.57;;;7.70;99.90;;;;;;5038522;28;20210;-69
2023/11/22 04:42:48;;;;;;;4.97;4.10;;;7.70;99.90;;;;;;5043652;28;20461;-69
2023/11/22 04:45:13;;;;;;;4.47;3.67;;;7.60;99.90;;;;;;5038652;28;20209;-69
2023/11/22 04:47:39;;;;;;;5.60;3.90;;;7.50;99.90;;;;;;5041349;28;20457;-69
2023/11/22 04:50:05;;;;;;;6.17;4.17;;;7.50;99.90;;;;;;5043015;28;20180;-69
2023/11/22 04:52:32;;;;;;;4.53;3.50;;;7.40;99.90;;;;;;5045277;28;20434;-69
2023/11/22 04:54:58;;;;;;;5.87;3.53;;;7.40;99.90;;;;;;5042660;28;20446;-69
2023/11/22 04:57:23;;;;;;;5.27;3.83;;;7.30;99.90;;;;;;5038850;28;20503;-68
2023/11/22 04:59:49;;;;;;;4.80;3.90;;;7.30;99.90;;;;;;5051707;28;20197;-69
2023/11/22 05:02:14;;;;;;;5.27;4.20;;;7.30;99.90;;;;;;5048929;28;20712;-68
2023/11/22 05:04:40;;;;;;;4.10;3.50;;;7.20;99.90;;;;;;5047906;28;20188;-68
2023/11/22 05:07:05;;;;;;;4.40;3.70;;;7.20;99.90;;;;;;5042525;28;20215;-69
2023/11/22 05:09:31;;;;;;;4.40;3.83;;;7.20;99.90;;;;;;5042829;28;20201;-69
2023/11/22 05:11:57;;;;;;;6.47;3.77;;;7.10;99.90;;;;;;5042735;28;20184;-69
2023/11/22 05:14:24;;;;;;;6.73;4.50;;;7.00;99.90;;;;;;5038210;28;20205;-69
2023/11/22 05:16:50;;;;;;;6.17;3.63;;;7.00;99.90;;;;;;5043990;28;20255;-69
2023/11/22 05:19:16;;;;;;;4.77;3.63;;;6.90;99.90;;;;;;5039606;28;20430;-69
2023/11/22 05:21:41;;;;;;;4.27;3.70;;;6.80;99.90;;;;;;5040610;28;20472;-69
2023/11/22 05:24:07;;;;;;;5.10;4.00;;;6.70;99.90;;;;;;5040570;28;20228;-69
2023/11/22 05:26:33;;;;;;;5.47;4.07;;;6.70;99.90;;;;;;5041423;28;20223;-69
2023/11/22 05:28:59;;;;;;;5.77;4.20;;;6.60;99.90;;;;;;5045437;28;20435;-69
2023/11/22 05:31:24;;;;;;;6.67;4.20;;;6.60;99.90;;;;;;5042650;28;20220;-69
2023/11/22 05:33:50;;;;;;;8.70;4.10;;;6.50;99.90;;;;;;5040526;28;20212;-70
2023/11/22 05:36:16;;;;;;;6.50;4.40;;;6.50;99.90;;;;;;5042864;28;20233;-69
2023/11/22 05:38:42;;;;;;;5.40;4.17;;;6.50;99.90;;;;;;5045058;28;20514;-69
2023/11/22 05:41:08;;;;;;;6.43;4.90;;;6.50;99.90;;;;;;5043460;28;20434;-69
2023/11/22 05:43:36;;;;;;;6.10;4.57;;;6.50;99.90;;;;;;5042241;28;20487;-69
2023/11/22 05:46:03;;;;;;;5.13;4.13;;;6.40;99.90;;;;;;5038782;28;20739;-69
2023/11/22 05:48:28;;;;;;;5.20;4.03;;;6.40;99.90;;;;;;5044720;28;20460;-69
2023/11/22 05:50:54;;;;;;;7.00;4.17;;;6.40;99.90;;;;;;5042414;28;20406;-69
2023/11/22 05:53:21;;;;;;;5.33;4.50;;;6.30;99.90;;;;;;5041348;28;20247;-69
2023/11/22 05:55:50;;;;;;;5.93;4.30;;;6.30;99.90;;;;;;5038037;28;20172;-69
2023/11/22 05:58:16;;;;;;;7.13;4.40;;;6.30;99.90;;;;;;5039836;28;20414;-69
2023/11/22 06:00:46;;;;;;;5.90;4.23;;;6.30;99.90;;;;;;5038438;28;20914;-69
2023/11/22 06:03:12;;;;;;;7.30;4.17;;;6.30;99.90;;;;;;5041595;28;20453;-70
2023/11/22 06:05:39;;;;;;;5.37;3.87;;;6.20;99.90;;;;;;5040614;28;20445;-69
2023/11/22 06:08:05;;;;;;;7.20;4.87;;;6.20;99.90;;;;;;5043276;28;20445;-69
2023/11/22 06:10:30;;;;;;;5.43;4.17;;;6.20;99.90;;;;;;5041159;28;20469;-69
2023/11/22 06:12:56;;;;;;;5.23;4.17;;;6.10;99.90;;;;;;5043538;28;20246;-69
2023/11/22 06:15:22;;;;;;;6.50;4.40;;;6.10;99.90;;;;;;5039884;28;20263;-69
2023/11/22 06:17:48;;;;;;;7.63;4.97;;;6.10;99.90;;;;;;5038340;28;20202;-69
2023/11/22 06:20:14;;;;;;;5.70;4.57;;;6.10;99.90;;;;;;5041252;28;20417;-69
2023/11/22 06:22:42;;;;;;;7.63;4.20;;;6.00;99.90;;;;;;5041295;28;20457;-69
2023/11/22 06:25:10;;;;;;;5.47;4.03;;;6.10;99.90;;;;;;5041180;28;20411;-69
2023/11/22 06:27:36;;;;;;;5.67;4.03;;;6.00;99.90;;;;;;5040854;28;20497;-69
2023/11/22 06:30:01;;;;;;;5.80;3.63;;;6.00;99.90;;;;;;5040828;28;20446;-69
2023/11/22 06:32:27;;;;;;;5.50;3.60;;;5.90;99.90;;;;;;5040050;28;20195;-69
2023/11/22 06:34:52;;;;;;;5.30;3.90;;;5.90;99.90;;;;;;5040826;28;20207;-69
2023/11/22 06:37:18;;;;;;;9.03;3.83;;;5.90;99.90;;;;;;5041328;28;20190;-70
2023/11/22 06:39:43;;;;;;;6.10;4.30;;;5.80;99.90;;;;;;5043456;28;20188;-69
2023/11/22 06:42:09;;;;;;;4.43;3.20;;;5.80;99.90;;;;;;5040936;28;20190;-69
2023/11/22 06:44:35;;;;;;;9.73;4.50;;;5.80;99.90;;;;;;5038142;28;20203;-69
2023/11/22 06:47:00;;;;;;;5.50;3.80;;;5.70;99.90;;;;;;5035433;28;20242;-69
2023/11/22 06:49:26;;;;;;;5.50;3.40;;;5.80;99.90;;;;;;5038238;28;20687;-69
2023/11/22 06:51:51;;;;;;;4.63;3.60;;;5.80;99.90;;;;;;5041045;28;20637;-69
2023/11/22 06:54:20;;;;;;;6.23;3.73;;;5.80;99.90;;;;;;5035255;28;20295;-69
2023/11/22 06:56:45;;;;;;;4.60;3.17;;;5.70;99.90;;;;;;5041591;28;20605;-69
2023/11/22 06:59:11;;;;;;;6.77;4.57;;;5.70;99.90;;;;;;5038120;28;20419;-69
2023/11/22 07:01:37;;;;;;;12.07;8.20;;;5.70;99.90;;;;;;5034777;28;20195;-69
2023/11/22 07:04:04;;;;;;;8.53;5.20;;;5.70;99.90;;;;;;5037230;28;20653;-69
2023/11/22 07:06:30;;;;;;;6.37;3.77;;;5.60;99.90;;;;;;5037420;28;20196;-69
2023/11/22 07:08:57;;;;;;;6.43;4.17;;;5.70;99.90;;;;;;5039652;28;21053;-69
2023/11/22 07:11:24;;;;;;;5.50;3.63;;;5.60;99.90;;;;;;5045398;28;20440;-69
2023/11/22 07:13:50;;;;;;;5.00;3.60;;;5.60;99.90;;;;;;5044368;28;20822;-69
2023/11/22 07:16:15;;;;;;;5.17;3.73;;;5.60;99.90;;;;;;5048391;28;20426;-69
2023/11/22 07:18:41;;;;;;;7.40;3.87;;;5.60;99.90;;;;;;5041200;28;20192;-69
2023/11/22 07:21:06;;;;;;;5.10;3.90;;;5.60;99.90;;;;;;5045349;28;20221;-69
2023/11/22 07:23:32;;;;;;;7.50;4.50;;;5.60;99.90;;;;;;5044711;28;20307;-69
2023/11/22 07:25:57;;;;;;;7.57;4.60;;;5.60;99.90;;;;;;5044755;28;20611;-70
2023/11/22 07:28:24;;;;;;;4.67;3.30;;;5.60;99.90;;;;;;5043790;28;20280;-69
2023/11/22 07:30:50;;;;;;;6.43;3.87;;;5.60;99.90;;;;;;5047572;28;20217;-69
2023/11/22 07:33:15;;;;;;;5.63;3.40;;;5.60;99.90;;;;;;5045164;28;20764;-69
2023/11/22 07:35:41;;;;;;;6.53;3.37;;;5.70;99.90;;;;;;5043128;28;20554;-69
2023/11/22 07:38:11;;;;;;;4.20;3.50;;;5.60;99.90;;;;;;5044015;28;20259;-69
2023/11/22 07:40:37;;;;;;;10.23;6.50;;;5.60;99.90;;;;;;5044486;28;20285;-69
2023/11/22 07:43:04;;;;;;;5.40;3.50;;;5.60;99.90;;;;;;5042519;28;20485;-69
2023/11/22 07:45:33;;;;;;;5.67;3.87;;;5.60;99.90;;;;;;5047695;28;20564;-69
2023/11/22 07:47:59;;;;;;;5.93;3.80;;;5.60;99.90;;;;;;5045873;28;21036;-69
2023/11/22 07:50:29;;;;;;;6.80;3.80;;;5.60;99.90;;;;;;5043683;28;20451;-70
2023/11/22 07:52:55;;;;;;;5.60;3.43;;;5.60;99.90;;;;;;5040660;28;20447;-69
2023/11/22 07:55:21;;;;;;;9.20;4.20;;;5.60;99.90;;;;;;5040998;28;20422;-69
2023/11/22 07:57:49;;;;;;;4.63;3.43;;;5.50;99.90;;;;;;5044592;28;20453;-70
2023/11/22 08:00:19;;;;;;;6.00;3.20;;;5.50;99.90;;;;;;5043601;28;20429;-69
2023/11/22 08:02:47;;;;;;;5.50;4.00;;;5.50;99.90;;;;;;5040357;28;20889;-69
2023/11/22 08:05:15;;;;;;;5.13;3.53;;;5.50;99.90;;;;;;5043225;28;20447;-70
2023/11/22 08:07:41;;;;;;;6.20;3.77;;;5.60;99.90;;;;;;5041490;28;20458;-69
2023/11/22 08:10:19;;;;;;;4.90;4.10;;;5.50;99.90;;;;;;5043152;28;20799;-69
2023/11/22 08:12:49;;;;;;;8.50;4.60;;;5.60;99.90;;;;;;5041776;28;20441;-69
2023/11/22 08:15:16;;;;;;;5.97;4.27;;;5.60;99.90;;;;;;5041213;28;20479;-70
2023/11/22 08:17:43;;;;;;;8.60;6.60;;;5.60;99.90;;;;;;5041757;28;20509;-69
2023/11/22 08:20:13;;;;;;;7.73;3.97;;;5.60;99.90;;;;;;5040709;28;20426;-69
2023/11/22 08:22:39;;;;;;;5.67;3.70;;;5.60;99.90;;;;;;5042847;28;20452;-69
2023/11/22 08:25:08;;;;;;;8.00;4.90;;;5.60;99.90;;;;;;5038688;28;20499;-69
2023/11/22 08:27:34;;;;;;;7.80;5.23;;;5.60;99.90;;;;;;5042837;28;20523;-69
2023/11/22 08:30:04;;;;;;;6.07;4.37;;;5.70;99.90;;;;;;5044464;28;20888;-69
2023/11/22 08:32:31;;;;;;;5.37;3.80;;;5.70;99.90;;;;;;5040176;28;20266;-69
2023/11/22 08:34:57;;;;;;;5.50;3.70;;;5.70;99.90;;;;;;5042498;28;20768;-69
2023/11/22 08:37:22;;;;;;;9.40;4.10;;;5.80;99.90;;;;;;5043263;28;20445;-69
2023/11/22 08:39:48;;;;;;;6.60;4.23;;;5.80;99.90;;;;;;5043843;28;20973;-69
2023/11/22 08:42:14;;;;;;;6.60;3.97;;;5.80;99.90;;;;;;5041754;28;20188;-70
2023/11/22 08:44:40;;;;;;;5.60;3.77;;;5.80;99.90;;;;;;5042373;28;20498;-69
2023/11/22 08:47:06;;;;;;;7.33;4.17;;;5.80;99.90;;;;;;5040373;28;20203;-69
2023/11/22 08:49:33;;;;;;;5.30;3.90;;;5.80;99.90;;;;;;5043595;28;20928;-70
2023/11/22 08:52:02;;;;;;;5.40;3.97;;;5.80;99.90;;;;;;5040687;28;20179;-70
2023/11/22 08:54:29;;;;;;;4.80;4.00;;;5.80;99.90;;;;;;5042205;28;20492;-69
2023/11/22 08:56:58;;;;;;;6.63;4.30;;;5.90;99.90;;;;;;5041700;28;20472;-70
2023/11/22 08:59:23;;;;;;;6.80;4.10;;;5.90;99.90;;;;;;5036870;28;20849;-70
2023/11/22 09:01:49;;;;;;;9.57;4.37;;;6.00;99.90;;;;;;5039097;28;20431;-70
2023/11/22 09:04:15;;;;;;;4.83;4.00;;;6.10;99.90;;;;;;5041255;28;20203;-69
2023/11/22 09:06:41;;;;;;;5.13;3.80;;;6.20;99.90;;;;;;5043778;28;20226;-69
2023/11/22 09:09:08;;;;;;;6.67;4.03;;;6.30;99.90;;;;;;5041232;28;20438;-70
2023/11/22 09:11:34;;;;;;;4.87;4.03;;;6.30;99.90;;;;;;5043860;28;20644;-69
2023/11/22 09:14:04;;;;;;;5.10;3.67;;;6.40;99.90;;;;;;5043139;28;20493;-69
2023/11/22 09:16:35;;;;;;;5.50;4.20;;;6.40;99.90;;;;;;5040057;28;20438;-69
2023/11/22 09:19:01;;;;;;;5.10;3.90;;;6.40;99.90;;;;;;5054169;28;20426;-69
2023/11/22 09:21:26;;;;;;;5.40;3.60;;;6.40;99.90;;;;;;5043007;28;20421;-69
2023/11/22 09:23:52;;;;;;;9.73;3.90;;;6.50;99.90;;;;;;5039126;28;20216;-69
2023/11/22 09:26:18;;;;;;;5.23;4.30;;;6.60;99.90;;;;;;5043207;28;20681;-69
2023/11/22 09:28:44;;;;;;;5.90;4.00;;;6.60;99.90;;;;;;5041660;28;20196;-69
2023/11/22 09:31:13;;;;;;;6.70;5.10;;;6.70;99.90;;;;;;5042548;28;20416;-70
2023/11/22 09:33:38;;;;;;;5.00;3.87;;;6.80;99.90;;;;;;5040610;28;20208;-69
2023/11/22 09:36:04;;;;;;;7.87;4.10;;;6.90;99.90;;;;;;5043748;28;20418;-69
2023/11/22 09:38:30;;;;;;;8.33;4.10;;;7.00;99.90;;;;;;5046300;28;20183;-69
2023/11/22 09:40:56;;;;;;;4.83;3.90;;;7.10;99.90;;;;;;5040005;28;20195;-69
2023/11/22 09:43:24;;;;;;;6.73;3.53;;;7.10;99.90;;;;;;5043358;28;20204;-69
2023/11/22 09:45:51;;;;;;;6.30;4.57;;;7.10;99.90;;;;;;5037367;28;20418;-69
2023/11/22 09:48:19;;;;;;;5.90;4.97;;;7.20;99.90;;;;;;5034154;28;20801;-69
2023/11/22 09:51:17;;;;;;;8.20;6.23;;;7.20;99.90;;;;;;5043779;28;20442;-70
2023/11/22 09:53:42;;;;;;;6.30;5.23;;;7.30;99.90;;;;;;5038152;28;20434;-69
2023/11/22 09:56:14;;;;;;;8.77;6.07;;;7.40;99.90;;;;;;5041325;28;20411;-69
2023/11/22 09:58:43;;;;;;;9.77;5.73;;;7.40;99.90;;;;;;5041477;28;20187;-69
2023/11/22 10:01:11;;;;;;;7.93;5.50;;;7.40;99.90;;;;;;5039265;28;20426;-69
2023/11/22 10:03:37;;;;;;;8.40;6.10;;;7.50;99.90;;;;;;5040367;28;20485;-69
2023/11/22 10:06:04;;;;;;;15.60;6.87;;;7.50;99.90;;;;;;5041218;28;20474;-69
2023/11/22 10:08:29;;;;;;;8.37;5.90;;;7.50;99.90;;;;;;5042056;28;20266;-69
2023/11/22 10:10:56;;;;;;;6.83;5.43;;;7.50;99.90;;;;;;5039667;28;20521;-69
2023/11/22 10:13:22;;;;;;;8.40;5.27;;;7.60;99.90;;;;;;5038986;28;20261;-69
2023/11/22 10:15:48;;;;;;;7.37;4.30;;;7.60;99.90;;;;;;5042541;28;20549;-69
2023/11/22 10:18:14;;;;;;;7.60;4.50;;;7.50;99.90;;;;;;5041264;28;20442;-68
2023/11/22 10:20:41;;;;;;;7.00;4.57;;;7.50;99.90;;;;;;5041572;28;20786;-69
2023/11/22 10:23:13;;;;;;;5.23;3.50;;;7.50;99.90;;;;;;5045347;28;20253;-68
2023/11/22 10:25:51;;;;;;;10.10;6.70;;;7.40;99.90;;;;;;5040784;28;20427;-69
2023/11/22 10:28:17;;;;;;;5.87;3.77;;;7.40;99.90;;;;;;5036492;28;20473;-69
2023/11/22 10:30:47;;;;;;;4.80;4.00;;;7.40;99.90;;;;;;5042647;28;20438;-69
2023/11/22 10:33:15;;;;;;;7.20;4.20;;;7.40;99.90;;;;;;5035298;28;20447;-69
2023/11/22 10:35:48;;;;;;;7.20;4.30;;;7.40;99.90;;;;;;5039063;28;20912;-68
2023/11/22 10:38:17;;;;;;;11.20;4.33;;;7.50;99.90;;;;;;5044494;28;20991;-69
2023/11/22 10:40:45;;;;;;;6.80;4.40;;;7.50;99.90;;;;;;5044201;28;20416;-69
2023/11/22 10:43:17;;;;;;;7.20;5.00;;;7.60;99.90;;;;;;5028575;28;21015;-69
2023/11/22 10:45:46;;;;;;;7.50;3.17;;;7.60;99.90;;;;;;5028873;28;20431;-69
2023/11/22 10:48:15;;;;;;;6.20;4.17;;;7.80;99.90;;;;;;5036702;28;20469;-69
2023/11/22 10:50:42;;;;;;;4.77;3.90;;;7.90;99.90;;;;;;5039273;28;20792;-69
2023/11/22 10:53:15;;;;;;;7.40;4.90;;;8.10;99.90;;;;;;5040618;28;20532;-69
2023/11/22 10:55:48;;;;;;;6.27;4.50;;;8.10;99.90;;;;;;5041214;28;20430;-69
2023/11/22 10:58:15;;;;;;;5.40;4.40;;;8.20;99.90;;;;;;5041145;28;20422;-69
2023/11/22 11:00:41;;;;;;;5.83;4.10;;;8.30;99.90;;;;;;5039406;28;20514;-69
2023/11/22 11:03:18;;;;;;;4.77;3.90;;;8.50;99.90;;;;;;5037176;28;20450;-69
2023/11/22 11:05:52;;;;;;;5.80;4.27;;;8.50;99.90;;;;;;5035517;28;20414;-70
2023/11/22 11:08:20;;;;;;;5.47;4.53;;;8.50;99.90;;;;;;5037410;28;20462;-69
2023/11/22 11:10:46;;;;;;;5.20;4.27;;;8.40;99.90;;;;;;5039618;28;20437;-69
2023/11/22 11:13:13;;;;;;;5.73;4.50;;;8.50;99.90;;;;;;5037677;28;20450;-69
2023/11/22 11:15:43;;;;;;;4.97;3.80;;;8.40;99.90;;;;;;5040194;28;20421;-69
2023/11/22 11:18:12;;;;;;;5.90;4.40;;;8.30;99.90;;;;;;5035023;28;21062;-69
2023/11/22 11:20:50;;;;;;;6.17;4.03;;;8.30;99.90;;;;;;5057767;28;20924;-69
2023/11/22 11:23:26;;;;;;;6.10;4.37;;;8.30;99.90;;;;;;5038414;28;20489;-69
2023/11/22 11:26:08;;;;;;;5.83;5.10;;;8.30;99.90;;;;;;5036718;28;20425;-69
2023/11/22 11:28:45;;;;;;;8.40;5.60;;;8.30;99.90;;;;;;5036445;28;20926;-70
2023/11/22 11:31:11;;;;;;;6.00;4.07;;;8.30;99.90;;;;;;5034061;28;20440;-69
2023/11/22 11:33:50;;;;;;;6.03;4.90;;;8.30;99.90;;;;;;5035183;28;20461;-69
2023/11/22 11:36:24;;;;;;;6.50;5.00;;;8.20;99.90;;;;;;5041688;28;20196;-69
2023/11/22 11:38:51;;;;;;;5.97;4.60;;;8.10;99.90;;;;;;5035482;28;20427;-70
2023/11/22 11:41:17;;;;;;;5.20;4.47;;;8.10;99.90;;;;;;5033978;28;20414;-71
2023/11/22 11:43:45;;;;;;;5.73;4.80;;;8.00;99.90;;;;;;5028642;28;21321;-70
2023/11/22 11:46:11;;;;;;;6.23;4.60;;;8.00;99.90;;;;;;5048585;28;20933;-69
2023/11/22 11:48:37;;;;;;;6.17;4.50;;;8.00;99.90;;;;;;5038082;28;20422;-69
2023/11/22 11:51:03;;;;;;;7.53;4.90;;;8.00;99.90;;;;;;5036195;28;20944;-69
2023/11/22 11:53:31;;;;;;;6.60;5.37;;;8.20;99.90;;;;;;5041212;28;20226;-69
2023/11/22 11:55:57;;;;;;;6.23;4.93;;;8.20;99.90;;;;;;5038803;28;20425;-70
2023/11/22 11:58:23;;;;;;;5.90;4.70;;;8.30;99.90;;;;;;5041301;28;20418;-69
2023/11/22 12:00:52;;;;;;;6.00;4.80;;;8.30;99.90;;;;;;5037787;28;20418;-70
2023/11/22 12:03:20;;;;;;;6.73;4.83;;;8.30;99.90;;;;;;5036014;28;20204;-70
2023/11/22 12:05:48;;;;;;;6.47;4.77;;;8.40;99.90;;;;;;5032348;28;20932;-70
2023/11/22 12:08:18;;;;;;;9.67;5.37;;;8.30;99.90;;;;;;5040525;28;20422;-69
2023/11/22 12:10:48;;;;;;;6.93;5.27;;;8.30;99.90;;;;;;5040764;28;20430;-69
2023/11/22 12:13:17;;;;;;;7.23;5.17;;;8.30;99.90;;;;;;5044460;28;20521;-69
2023/11/22 12:15:42;;;;;;;7.07;5.77;;;8.40;99.90;;;;;;5041253;28;20936;-70
2023/11/22 12:18:08;;;;;;;5.77;4.37;;;8.40;99.90;;;;;;5041986;28;20426;-69
2023/11/22 12:20:35;;;;;;;6.47;4.90;;;8.40;99.90;;;;;;5048138;28;20647;-69
2023/11/22 12:23:01;;;;;;;6.67;4.50;;;8.40;99.90;;;;;;5040926;28;21023;-69
2023/11/22 12:25:27;;;;;;;10.13;4.67;;;8.40;99.90;;;;;;5044307;28;20437;-69
2023/11/22 12:27:56;;;;;;;5.53;4.80;;;8.40;99.90;;;;;;5042463;28;20453;-69
2023/11/22 12:30:29;;;;;;;8.10;6.30;;;8.30;99.90;;;;;;5041014;28;20541;-69
2023/11/22 12:32:55;;;;;;;7.60;6.57;;;8.40;99.90;;;;;;5042384;28;20465;-69
2023/11/22 12:35:22;;;;;;;7.90;4.53;;;8.40;99.90;;;;;;5042249;28;20426;-69
2023/11/22 12:37:48;;;;;;;6.40;5.13;;;8.40;99.90;;;;;;5040527;28;20184;-69
2023/11/22 12:40:17;;;;;;;6.70;5.30;;;8.50;99.90;;;;;;5044054;28;20420;-69
2023/11/22 12:42:50;;;;;;;5.53;4.23;;;8.50;99.90;;;;;;5041829;28;20207;-69
2023/11/22 12:45:21;;;;;;;5.20;4.67;;;8.60;99.90;;;;;;5042676;28;20873;-69
2023/11/22 12:47:47;;;;;;;5.70;5.03;;;8.60;99.90;;;;;;5045774;28;20556;-69
2023/11/22 12:50:48;;;;;;;5.90;4.50;;;8.50;99.90;;;;;;5045647;28;20446;-69
2023/11/22 12:53:15;;;;;;;8.27;4.43;;;8.40;99.90;;;;;;4972789;28;20457;-69
2023/11/22 12:55:46;;;;;;;12.37;4.63;;;8.40;99.90;;;;;;5030934;28;20410;-69